Time;durP1;ratioP1;P1;durP2;ratioP2;P2;SDS_P1;SDS_P2;PMS_P1;PMS_P2;Temp;Humidity;BMP_temperature;BMP_pressure;BME280_temperature;BME280_humidity;BME280_pressure;Samples;Min_cycle;Max_cycle;Signal;HPM_P1;HPM_P2
2021/06/05 00:01:56;;;;;;;2.13;1.50;;;24.40;40.10;;;;;;8326358;28;20040;-50
2021/06/05 00:05:59;;;;;;;4.70;2.05;;;24.40;40.00;;;;;;8328061;28;20280;-49
2021/06/05 00:10:00;;;;;;;3.60;2.42;;;24.40;40.00;;;;;;8327189;28;20056;-47
2021/06/05 00:14:04;;;;;;;2.63;2.00;;;24.40;40.20;;;;;;8330115;28;20073;-46
2021/06/05 00:18:05;;;;;;;3.58;2.00;;;24.40;40.00;;;;;;8327010;28;20124;-47
2021/06/05 00:22:06;;;;;;;1.92;1.73;;;24.40;40.20;;;;;;8326578;28;20044;-47
2021/06/05 00:26:07;;;;;;;1.88;1.70;;;24.40;40.00;;;;;;8317052;28;20074;-47
2021/06/05 00:30:08;;;;;;;2.38;2.10;;;24.40;40.00;;;;;;8298950;28;20557;-46
2021/06/05 00:34:09;;;;;;;3.03;1.88;;;24.40;40.00;;;;;;8327736;28;20041;-46
2021/06/05 00:38:10;;;;;;;2.28;1.70;;;24.30;40.00;;;;;;8303305;28;20034;-48
2021/06/05 00:42:11;;;;;;;3.08;2.00;;;24.30;40.20;;;;;;8294920;28;20038;-47
2021/06/05 00:46:13;;;;;;;2.45;1.70;;;24.40;40.00;;;;;;8294455;28;20054;-46
2021/06/05 00:50:15;;;;;;;2.30;1.70;;;24.30;40.00;;;;;;8296699;28;20057;-48
2021/06/05 00:54:19;;;;;;;2.55;1.73;;;24.30;40.00;;;;;;8320290;28;20117;-47
2021/06/05 00:58:21;;;;;;;3.20;1.63;;;24.30;40.00;;;;;;8325596;28;20037;-46
2021/06/05 01:02:22;;;;;;;1.65;1.42;;;24.30;40.00;;;;;;8316134;28;20073;-46
2021/06/05 01:06:38;;;;;;;2.00;1.77;;;24.30;40.00;;;;;;8297918;28;20415;-48
2021/06/05 01:10:42;;;;;;;3.83;1.75;;;24.30;40.20;;;;;;8296608;28;20495;-48
2021/06/05 01:14:48;;;;;;;3.45;1.40;;;24.30;40.10;;;;;;8314665;28;20029;-46
2021/06/05 01:19:03;;;;;;;1.80;1.67;;;24.30;40.20;;;;;;8310935;28;20153;-47
2021/06/05 01:23:16;;;;;;;2.50;1.80;;;24.30;40.00;;;;;;8298606;28;20072;-47
2021/06/05 01:27:43;;;;;;;2.75;1.83;;;24.30;40.10;;;;;;8329747;28;20045;-47
2021/06/05 01:31:50;;;;;;;1.92;1.73;;;24.30;40.00;;;;;;8297132;28;20439;-47
2021/06/05 01:35:52;;;;;;;1.98;1.42;;;24.30;40.10;;;;;;8291674;28;20034;-47
2021/06/05 01:39:54;;;;;;;2.20;1.70;;;24.30;40.20;;;;;;8293463;28;20406;-46
2021/06/05 01:43:55;;;;;;;1.40;1.30;;;24.30;40.10;;;;;;8298186;28;20056;-47
2021/06/05 01:47:57;;;;;;;1.95;1.42;;;24.20;40.70;;;;;;8329570;28;20033;-46
2021/06/05 01:52:09;;;;;;;2.38;1.85;;;24.20;40.20;;;;;;8294408;28;20065;-48
2021/06/05 01:56:27;;;;;;;2.45;1.65;;;24.20;40.10;;;;;;8313322;28;20042;-47
2021/06/05 02:00:33;;;;;;;2.13;1.40;;;24.20;40.20;;;;;;8310407;28;20043;-46
2021/06/05 02:04:34;;;;;;;2.70;1.52;;;24.20;40.10;;;;;;8298872;28;20046;-47
2021/06/05 02:08:35;;;;;;;2.20;1.40;;;24.20;40.00;;;;;;8327614;28;20030;-47
2021/06/05 02:12:36;;;;;;;2.60;1.70;;;24.20;40.20;;;;;;8324163;28;20041;-46
2021/06/05 02:16:44;;;;;;;1.42;1.33;;;24.20;40.10;;;;;;8324045;28;20041;-46
2021/06/05 02:20:52;;;;;;;1.95;1.50;;;24.20;40.30;;;;;;8322297;28;20029;-47
2021/06/05 02:24:57;;;;;;;1.50;1.38;;;24.20;40.30;;;;;;8322916;28;20536;-47
2021/06/05 02:28:59;;;;;;;1.77;1.30;;;24.20;40.20;;;;;;8294506;28;20030;-48
2021/06/05 02:33:01;;;;;;;1.63;1.27;;;24.20;40.10;;;;;;8293121;28;20129;-47
2021/06/05 02:37:06;;;;;;;2.03;1.52;;;24.10;40.10;;;;;;8313564;28;20040;-46
2021/06/05 02:41:09;;;;;;;2.70;1.80;;;24.10;40.30;;;;;;8328622;28;20045;-46
2021/06/05 02:45:19;;;;;;;4.22;1.80;;;24.10;40.10;;;;;;8334730;28;20076;-47
2021/06/05 02:49:19;;;;;;;3.38;2.00;;;24.10;40.00;;;;;;8298452;28;20112;-47
2021/06/05 02:53:20;;;;;;;2.23;1.90;;;24.10;40.10;;;;;;8318588;28;20030;-46
2021/06/05 02:57:21;;;;;;;2.08;1.85;;;24.10;40.10;;;;;;8330250;28;20030;-47
2021/06/05 03:01:21;;;;;;;2.53;1.52;;;24.10;40.10;;;;;;8330312;28;20029;-47
2021/06/05 03:05:22;;;;;;;2.67;1.75;;;24.10;40.10;;;;;;8332714;28;20510;-47
2021/06/05 03:09:23;;;;;;;2.22;1.52;;;24.10;40.20;;;;;;8304012;28;20124;-47
2021/06/05 03:13:24;;;;;;;2.00;1.60;;;24.10;40.20;;;;;;8297573;28;20053;-47
2021/06/05 03:17:28;;;;;;;2.53;1.88;;;24.10;40.20;;;;;;8301743;28;20037;-47
2021/06/05 03:21:29;;;;;;;4.30;1.90;;;24.10;40.30;;;;;;8334115;28;20402;-49
2021/06/05 03:25:29;;;;;;;2.58;1.80;;;24.10;40.20;;;;;;8328655;28;20053;-47
2021/06/05 03:29:30;;;;;;;1.55;1.38;;;24.10;40.20;;;;;;8327396;28;20030;-47
2021/06/05 03:33:31;;;;;;;1.98;1.63;;;24.10;40.30;;;;;;8318214;28;20045;-47
2021/06/05 03:37:32;;;;;;;2.42;1.77;;;24.10;40.20;;;;;;8296950;28;20057;-47
2021/06/05 03:41:34;;;;;;;2.40;1.65;;;24.00;40.20;;;;;;8298745;28;20026;-48
2021/06/05 03:45:35;;;;;;;2.47;1.98;;;24.00;40.30;;;;;;8294962;28;20131;-47
2021/06/05 03:49:36;;;;;;;2.25;1.73;;;24.10;40.30;;;;;;8310274;28;20029;-47
2021/06/05 03:53:37;;;;;;;2.27;1.70;;;24.00;40.20;;;;;;8321887;28;20379;-47
2021/06/05 03:57:38;;;;;;;2.35;1.73;;;24.00;40.20;;;;;;8300119;28;20775;-47
2021/06/05 04:01:39;;;;;;;1.90;1.40;;;24.00;40.30;;;;;;8322948;28;20087;-48
2021/06/05 04:05:40;;;;;;;1.98;1.50;;;24.00;40.40;;;;;;8308032;28;20446;-48
2021/06/05 04:09:41;;;;;;;;;;;24.00;40.30;;;;;;8296731;28;20125;-48
2021/06/05 04:13:42;;;;;;;2.25;1.45;;;24.00;40.30;;;;;;8299788;28;19917;-48
2021/06/05 04:17:42;;;;;;;2.00;1.60;;;24.00;40.40;;;;;;8294453;28;20113;-47
2021/06/05 04:21:43;;;;;;;1.58;1.38;;;24.00;40.30;;;;;;8295683;28;20034;-48
2021/06/05 04:25:44;;;;;;;1.77;1.33;;;24.00;40.40;;;;;;8307254;28;20065;-48
2021/06/05 04:29:44;;;;;;;1.73;1.20;;;24.00;40.40;;;;;;8323908;28;20042;-47
2021/06/05 04:33:45;;;;;;;1.48;1.25;;;24.00;40.50;;;;;;8299318;28;20030;-48
2021/06/05 04:37:45;;;;;;;1.80;1.33;;;24.00;40.50;;;;;;8318549;28;20065;-47
2021/06/05 04:41:46;;;;;;;1.60;1.37;;;24.00;40.40;;;;;;8326418;28;20053;-47
2021/06/05 04:45:47;;;;;;;2.85;1.40;;;24.00;40.40;;;;;;8320323;28;20296;-47
2021/06/05 04:49:48;;;;;;;;;;;24.00;40.40;;;;;;8297174;28;20084;-47
2021/06/05 04:53:49;;;;;;;3.50;1.30;;;24.00;40.40;;;;;;8323167;28;20384;-48
2021/06/05 04:57:52;;;;;;;2.05;1.33;;;23.90;40.50;;;;;;8325916;28;20041;-48
2021/06/05 05:01:52;;;;;;;1.67;1.20;;;24.00;40.50;;;;;;8315124;28;20121;-48
2021/06/05 05:06:00;;;;;;;1.70;1.27;;;23.90;40.60;;;;;;8295009;28;20100;-47
2021/06/05 05:10:01;;;;;;;1.58;1.13;;;23.90;40.50;;;;;;8330440;28;20304;-48
2021/06/05 05:14:01;;;;;;;2.10;1.40;;;23.90;40.50;;;;;;8323439;28;20041;-47
2021/06/05 05:18:02;;;;;;;1.63;1.50;;;23.90;40.40;;;;;;8325626;28;20044;-47
2021/06/05 05:22:04;;;;;;;1.93;1.50;;;23.90;40.50;;;;;;8320530;28;20080;-47
2021/06/05 05:26:07;;;;;;;2.92;1.50;;;23.90;40.60;;;;;;8295512;28;20746;-47
2021/06/05 05:30:11;;;;;;;1.80;1.48;;;23.90;40.50;;;;;;8321707;28;20037;-47
2021/06/05 05:34:12;;;;;;;3.55;1.52;;;23.90;40.50;;;;;;8324322;28;20033;-50
2021/06/05 05:38:13;;;;;;;1.37;1.20;;;23.90;40.50;;;;;;8323119;28;20041;-48
2021/06/05 05:42:14;;;;;;;2.25;1.23;;;23.90;40.50;;;;;;8327235;28;20307;-49
2021/06/05 05:46:15;;;;;;;2.27;1.50;;;23.90;40.50;;;;;;8295171;28;20056;-49
2021/06/05 05:50:19;;;;;;;2.00;1.50;;;23.90;40.50;;;;;;8274441;28;20025;-47
2021/06/05 05:54:20;;;;;;;1.50;1.15;;;23.90;40.40;;;;;;8293569;28;20117;-50
2021/06/05 05:58:23;;;;;;;1.50;1.33;;;23.90;40.50;;;;;;8297104;28;20034;-48
2021/06/05 06:02:23;;;;;;;2.40;1.30;;;23.90;40.50;;;;;;8327552;28;20072;-47
2021/06/05 06:06:26;;;;;;;1.93;1.50;;;23.90;40.50;;;;;;8297696;28;20050;-48
2021/06/05 06:10:27;;;;;;;2.30;1.20;;;23.90;40.40;;;;;;8312773;28;20120;-48
2021/06/05 06:14:28;;;;;;;1.38;1.27;;;23.90;40.40;;;;;;8329527;28;20422;-48
2021/06/05 06:18:28;;;;;;;1.50;1.40;;;24.00;40.50;;;;;;8335681;28;20072;-48
2021/06/05 06:22:29;;;;;;;1.88;1.48;;;23.90;40.50;;;;;;8330897;28;20076;-48
2021/06/05 06:26:30;;;;;;;2.28;1.58;;;23.90;40.50;;;;;;8308213;28;20554;-48
2021/06/05 06:30:32;;;;;;;;;;;23.90;40.60;;;;;;8311044;28;20042;-48
2021/06/05 06:34:34;;;;;;;1.88;1.30;;;23.90;40.50;;;;;;8328636;28;20409;-48
2021/06/05 06:38:40;;;;;;;2.05;1.35;;;23.90;40.60;;;;;;8300914;28;20030;-47
2021/06/05 06:42:41;;;;;;;2.72;1.55;;;23.90;40.60;;;;;;8324585;28;20041;-49
2021/06/05 06:46:45;;;;;;;2.35;1.35;;;23.90;40.50;;;;;;8330012;28;20544;-48
2021/06/05 06:50:48;;;;;;;1.83;1.30;;;23.90;40.60;;;;;;8321669;28;20038;-47
2021/06/05 06:54:48;;;;;;;2.17;1.40;;;23.90;40.50;;;;;;8302104;28;20088;-49
2021/06/05 06:58:50;;;;;;;2.03;1.30;;;23.90;40.60;;;;;;8326847;28;20025;-51
2021/06/05 07:02:50;;;;;;;1.95;1.50;;;23.90;40.60;;;;;;8329079;28;20032;-51
2021/06/05 07:06:51;;;;;;;1.50;1.40;;;23.90;40.60;;;;;;8328951;28;20042;-47
2021/06/05 07:11:13;;;;;;;3.33;1.37;;;23.90;41.20;;;;;;8327090;28;20284;-47
2021/06/05 07:15:14;;;;;;;1.42;1.33;;;23.90;40.60;;;;;;8333441;28;20256;-49
2021/06/05 07:19:14;;;;;;;1.60;1.30;;;23.90;40.60;;;;;;8329238;28;20033;-47
2021/06/05 07:23:17;;;;;;;2.08;1.25;;;23.90;40.70;;;;;;8310233;28;20038;-49
2021/06/05 07:27:17;;;;;;;1.20;1.10;;;23.90;40.60;;;;;;8296616;28;20149;-49
2021/06/05 07:31:25;;;;;;;2.60;1.20;;;23.90;40.60;;;;;;8301082;28;20042;-47
2021/06/05 07:35:26;;;;;;;2.80;1.38;;;23.90;40.70;;;;;;8296182;28;20032;-49
2021/06/05 07:39:28;;;;;;;1.43;1.20;;;23.90;40.70;;;;;;8318943;28;20499;-48
2021/06/05 07:43:29;;;;;;;1.48;1.20;;;23.90;40.70;;;;;;8328651;28;20038;-52
2021/06/05 07:47:30;;;;;;;2.03;1.38;;;23.90;40.70;;;;;;8326747;28;20045;-47
2021/06/05 07:51:30;;;;;;;4.43;1.90;;;23.90;40.70;;;;;;8332833;28;20502;-48
2021/06/05 07:55:31;;;;;;;1.70;1.30;;;23.90;40.70;;;;;;8301443;28;20310;-49
2021/06/05 07:59:32;;;;;;;2.72;1.88;;;23.90;40.70;;;;;;8294799;28;20080;-48
2021/06/05 08:03:32;;;;;;;2.37;1.53;;;23.80;40.70;;;;;;8302741;28;20026;-48
2021/06/05 08:07:33;;;;;;;2.38;1.58;;;23.90;40.70;;;;;;8332026;28;20277;-48
2021/06/05 08:11:34;;;;;;;3.42;1.73;;;23.80;40.70;;;;;;8325170;28;20044;-48
2021/06/05 08:15:38;;;;;;;2.03;1.80;;;23.80;40.70;;;;;;8327566;28;20390;-51
2021/06/05 08:19:40;;;;;;;2.28;1.60;;;23.90;40.80;;;;;;8316359;28;20461;-48
2021/06/05 08:23:41;;;;;;;1.40;1.30;;;23.80;40.80;;;;;;8276645;28;20493;-47
2021/06/05 08:27:43;;;;;;;1.38;1.20;;;23.80;40.80;;;;;;8299170;28;20042;-49
2021/06/05 08:31:43;;;;;;;1.70;1.45;;;23.90;40.80;;;;;;8319065;28;20033;-48
2021/06/05 08:35:45;;;;;;;2.55;1.63;;;23.80;40.80;;;;;;8309943;28;20100;-48
2021/06/05 08:39:45;;;;;;;;;;;23.80;40.80;;;;;;8300050;28;20474;-52
2021/06/05 08:44:08;;;;;;;1.87;1.50;;;23.80;40.80;;;;;;8329665;28;19955;-48
2021/06/05 08:48:18;;;;;;;1.45;1.17;;;23.80;40.80;;;;;;8326903;28;20037;-47
2021/06/05 08:53:00;;;;;;;2.13;1.38;;;23.80;40.80;;;;;;8326698;28;20540;-48
2021/06/05 08:57:12;;;;;;;1.73;1.30;;;23.80;40.70;;;;;;8306392;28;20403;-48
2021/06/05 09:01:28;;;;;;;1.25;1.15;;;23.80;40.80;;;;;;8304857;28;20064;-47
2021/06/05 09:05:37;;;;;;;1.50;1.40;;;23.80;40.80;;;;;;8324006;28;20065;-50
2021/06/05 09:09:42;;;;;;;4.13;1.70;;;23.80;40.80;;;;;;8330412;28;20449;-49
2021/06/05 09:13:44;;;;;;;2.38;1.48;;;23.80;40.80;;;;;;8325756;28;20084;-49
2021/06/05 09:17:47;;;;;;;1.40;1.30;;;23.80;40.70;;;;;;8305497;28;20041;-47
2021/06/05 09:21:52;;;;;;;2.08;1.20;;;23.80;40.80;;;;;;8293069;28;20044;-51
2021/06/05 09:25:55;;;;;;;1.77;1.30;;;23.80;40.80;;;;;;8293498;28;20077;-47
2021/06/05 09:30:03;;;;;;;1.40;1.10;;;23.80;40.80;;;;;;8328718;28;20045;-47
2021/06/05 09:34:14;;;;;;;1.48;1.38;;;23.80;40.80;;;;;;8301356;28;20139;-48
2021/06/05 09:38:32;;;;;;;2.08;1.40;;;23.80;40.70;;;;;;8291148;28;20092;-46
2021/06/05 09:42:41;;;;;;;1.67;1.27;;;23.80;40.80;;;;;;8293039;28;20036;-48
2021/06/05 09:47:01;;;;;;;2.22;1.38;;;23.80;40.80;;;;;;8292505;28;20042;-49
2021/06/05 09:51:35;;;;;;;1.73;1.15;;;23.80;40.80;;;;;;8294753;28;20049;-51
2021/06/05 09:55:37;;;;;;;3.25;1.20;;;23.80;40.70;;;;;;8292841;28;20042;-47
2021/06/05 09:59:37;;;;;;;1.52;1.40;;;23.80;40.70;;;;;;8311567;28;20496;-48
2021/06/05 10:03:38;;;;;;;1.17;1.07;;;23.80;40.70;;;;;;8325182;28;20030;-48
2021/06/05 10:07:38;;;;;;;1.47;1.33;;;23.80;40.70;;;;;;8323811;28;20102;-47
2021/06/05 10:11:42;;;;;;;3.20;1.20;;;23.80;40.60;;;;;;8327638;28;20265;-48
2021/06/05 10:15:52;;;;;;;1.35;1.20;;;23.90;41.20;;;;;;8324569;28;20045;-47
2021/06/05 10:20:15;;;;;;;2.45;1.20;;;23.90;40.60;;;;;;8306724;28;20034;-47
2021/06/05 10:24:39;;;;;;;1.48;1.00;;;23.90;40.60;;;;;;8301672;28;20386;-48
2021/06/05 10:28:45;;;;;;;2.10;1.58;;;24.00;40.60;;;;;;8321045;28;20037;-48
2021/06/05 10:32:47;;;;;;;2.13;1.25;;;24.00;40.70;;;;;;8294987;28;20598;-49
2021/06/05 10:36:51;;;;;;;1.95;1.20;;;23.90;40.60;;;;;;8291777;28;20050;-50
2021/06/05 10:40:52;;;;;;;2.22;1.35;;;24.00;40.60;;;;;;8289636;28;20344;-48
2021/06/05 10:44:55;;;;;;;2.78;1.40;;;24.00;40.70;;;;;;8299608;28;20042;-48
2021/06/05 10:49:10;;;;;;;2.97;1.60;;;24.00;40.60;;;;;;8328341;28;20036;-47
2021/06/05 10:53:27;;;;;;;1.67;1.13;;;24.00;40.60;;;;;;8293067;28;20529;-48
2021/06/05 10:57:34;;;;;;;1.45;1.33;;;24.00;40.60;;;;;;8296157;28;20108;-48
2021/06/05 11:01:38;;;;;;;1.13;1.02;;;24.00;40.60;;;;;;8297727;28;20049;-46
2021/06/05 11:05:42;;;;;;;1.55;1.10;;;24.00;40.60;;;;;;8302693;28;20068;-50
2021/06/05 11:09:49;;;;;;;3.42;1.25;;;24.00;40.70;;;;;;8334196;28;20040;-46
2021/06/05 11:13:51;;;;;;;1.60;1.38;;;24.10;40.60;;;;;;8295882;28;20034;-46
2021/06/05 11:18:23;;;;;;;1.23;1.02;;;24.00;40.60;;;;;;8297986;28;20033;-46
2021/06/05 11:22:27;;;;;;;1.98;1.30;;;24.10;40.60;;;;;;8313979;28;20064;-46
2021/06/05 11:26:33;;;;;;;1.80;1.20;;;24.10;41.10;;;;;;8320364;28;20038;-50
2021/06/05 11:30:34;;;;;;;1.95;1.30;;;24.10;40.50;;;;;;8301064;28;20050;-46
2021/06/05 11:34:38;;;;;;;1.30;1.20;;;24.00;40.50;;;;;;8328370;28;20116;-46
2021/06/05 11:38:41;;;;;;;4.00;1.67;;;24.00;40.50;;;;;;8326018;28;20506;-46
2021/06/05 11:42:54;;;;;;;2.88;1.35;;;24.10;40.50;;;;;;8329031;28;20041;-46
2021/06/05 11:46:58;;;;;;;1.35;1.10;;;24.10;40.50;;;;;;8326569;28;20099;-46
2021/06/05 11:51:20;;;;;;;1.77;1.40;;;24.00;40.50;;;;;;8332843;28;20034;-46
2021/06/05 11:55:38;;;;;;;1.30;1.20;;;24.10;40.50;;;;;;8296635;28;20038;-47
2021/06/05 11:59:42;;;;;;;1.95;1.42;;;24.00;40.50;;;;;;8294193;28;20084;-47
2021/06/05 12:03:55;;;;;;;2.10;1.13;;;24.00;40.50;;;;;;8295664;28;20034;-46
2021/06/05 12:07:56;;;;;;;1.42;1.08;;;24.10;40.60;;;;;;8299545;28;20482;-46
2021/06/05 12:11:59;;;;;;;1.63;1.10;;;24.00;40.60;;;;;;8332594;28;20049;-48
2021/06/05 12:16:19;;;;;;;1.25;1.15;;;24.10;40.70;;;;;;8298175;28;20048;-47
2021/06/05 12:20:20;;;;;;;2.58;1.48;;;24.00;40.60;;;;;;8315677;28;20103;-49
2021/06/05 12:24:25;;;;;;;2.20;1.50;;;24.00;40.60;;;;;;8314163;28;20034;-47
2021/06/05 12:28:30;;;;;;;1.63;1.52;;;24.00;40.60;;;;;;8295326;28;20121;-47
2021/06/05 12:32:30;;;;;;;1.83;1.23;;;24.10;40.60;;;;;;8297596;28;20057;-51
2021/06/05 12:36:39;;;;;;;2.10;1.48;;;24.00;40.60;;;;;;8321689;28;20553;-46
2021/06/05 12:40:45;;;;;;;3.03;1.30;;;24.00;40.50;;;;;;8326340;28;20072;-47
2021/06/05 12:44:47;;;;;;;1.50;1.40;;;24.10;40.60;;;;;;8325190;28;20103;-47
2021/06/05 12:48:51;;;;;;;1.75;1.30;;;24.00;40.60;;;;;;8325619;28;20041;-48
2021/06/05 12:52:53;;;;;;;2.28;1.60;;;24.00;40.60;;;;;;8329140;28;20124;-47
2021/06/05 12:56:55;;;;;;;2.30;1.30;;;24.00;40.60;;;;;;8326169;28;20045;-46
2021/06/05 13:00:55;;;;;;;2.08;1.65;;;24.00;40.60;;;;;;8326021;28;20064;-46
2021/06/05 13:05:09;;;;;;;1.63;1.53;;;24.00;40.60;;;;;;8323577;28;20044;-47
2021/06/05 13:09:26;;;;;;;2.17;1.40;;;24.00;40.70;;;;;;8330476;28;20068;-46
2021/06/05 13:13:30;;;;;;;1.38;1.23;;;24.00;40.60;;;;;;8294710;28;20042;-46
2021/06/05 13:17:33;;;;;;;1.60;1.40;;;24.00;40.60;;;;;;8314306;28;20033;-46
2021/06/05 13:21:33;;;;;;;1.20;1.10;;;24.00;40.60;;;;;;8325895;28;20049;-46
2021/06/05 13:25:43;;;;;;;2.53;1.73;;;24.00;40.60;;;;;;8322182;28;20140;-47
2021/06/05 13:29:49;;;;;;;1.85;1.23;;;24.00;40.50;;;;;;8295609;28;20026;-45
2021/06/05 13:34:10;;;;;;;1.50;1.40;;;24.00;40.60;;;;;;8320928;28;20041;-46
2021/06/05 13:38:25;;;;;;;2.93;1.30;;;24.00;40.60;;;;;;8302385;28;20072;-45
2021/06/05 13:42:29;;;;;;;1.98;1.60;;;24.00;40.50;;;;;;8306867;28;20268;-46
2021/06/05 13:46:33;;;;;;;1.65;1.30;;;24.00;40.60;;;;;;8320912;28;20042;-47
2021/06/05 13:50:35;;;;;;;1.30;1.10;;;24.00;40.50;;;;;;8295275;28;20029;-49
2021/06/05 13:54:35;;;;;;;1.42;1.17;;;24.00;40.60;;;;;;8292484;28;20120;-46
2021/06/05 13:58:38;;;;;;;2.30;1.45;;;24.00;40.60;;;;;;8311121;28;20421;-48
2021/06/05 14:02:39;;;;;;;2.58;1.80;;;24.00;40.60;;;;;;8314744;28;20046;-46
2021/06/05 14:06:40;;;;;;;2.67;1.60;;;24.00;40.60;;;;;;8296193;28;20132;-46
2021/06/05 14:10:42;;;;;;;1.40;1.30;;;24.00;40.70;;;;;;8323649;28;20402;-46
2021/06/05 14:14:42;;;;;;;2.42;1.85;;;24.00;40.70;;;;;;8300387;28;20159;-46
2021/06/05 14:18:44;;;;;;;3.73;1.87;;;24.00;40.70;;;;;;8305191;28;20132;-45
2021/06/05 14:22:45;;;;;;;2.38;1.83;;;24.00;40.70;;;;;;8321036;28;20096;-46
2021/06/05 14:26:45;;;;;;;2.50;1.90;;;24.00;40.80;;;;;;8294938;28;20116;-47
2021/06/05 14:30:48;;;;;;;2.60;1.83;;;24.00;40.80;;;;;;8294379;28;20848;-45
2021/06/05 14:34:49;;;;;;;2.67;1.75;;;24.00;40.80;;;;;;8297152;28;20077;-48
2021/06/05 14:38:50;;;;;;;2.67;2.17;;;23.90;40.80;;;;;;8305878;28;20063;-46
2021/06/05 14:42:51;;;;;;;3.13;1.77;;;23.90;40.80;;;;;;8335117;28;20029;-46
2021/06/05 14:46:52;;;;;;;2.55;1.80;;;23.90;40.80;;;;;;8298632;28;20053;-49
2021/06/05 14:50:53;;;;;;;;;;;23.90;40.80;;;;;;8319394;28;20528;-48
2021/06/05 14:54:53;;;;;;;2.90;2.53;;;23.90;40.80;;;;;;8319990;28;19920;-45
2021/06/05 14:58:54;;;;;;;3.42;2.47;;;23.90;40.90;;;;;;8296692;28;20924;-47
2021/06/05 15:02:56;;;;;;;3.13;1.88;;;23.90;40.80;;;;;;8334517;28;20117;-45
2021/06/05 15:06:56;;;;;;;3.47;2.00;;;23.90;40.80;;;;;;8329460;28;20044;-45
2021/06/05 15:10:57;;;;;;;3.10;2.30;;;23.90;40.90;;;;;;8313042;28;20029;-47
2021/06/05 15:14:58;;;;;;;4.25;2.13;;;23.90;40.90;;;;;;8301465;28;20107;-45
2021/06/05 15:18:59;;;;;;;2.50;1.80;;;23.90;40.90;;;;;;8334074;28;20033;-46
2021/06/05 15:23:01;;;;;;;3.13;2.05;;;23.90;41.00;;;;;;8327703;28;20272;-45
2021/06/05 15:27:02;;;;;;;3.50;1.75;;;23.90;40.90;;;;;;8328759;28;20052;-46
2021/06/05 15:31:04;;;;;;;2.90;2.20;;;23.90;40.90;;;;;;8320269;28;20486;-47
2021/06/05 15:35:06;;;;;;;2.00;1.70;;;23.90;40.90;;;;;;8298777;28;20030;-47
2021/06/05 15:39:08;;;;;;;2.53;2.00;;;23.90;41.00;;;;;;8296888;28;20038;-46
2021/06/05 15:43:10;;;;;;;3.85;1.88;;;23.80;40.90;;;;;;8296016;28;20034;-46
2021/06/05 15:47:11;;;;;;;3.00;2.10;;;23.90;41.00;;;;;;8294549;28;20045;-46
2021/06/05 15:51:29;;;;;;;2.73;2.13;;;23.90;41.00;;;;;;8299553;28;20406;-46
2021/06/05 15:55:30;;;;;;;2.97;1.90;;;23.80;40.90;;;;;;8332695;28;20264;-45
2021/06/05 15:59:31;;;;;;;2.92;2.20;;;23.90;40.90;;;;;;8326424;28;20064;-47
2021/06/05 16:03:31;;;;;;;2.33;1.90;;;23.80;40.90;;;;;;8308675;28;20080;-46
2021/06/05 16:07:32;;;;;;;4.30;2.65;;;23.80;40.90;;;;;;8304654;28;20063;-46
2021/06/05 16:11:33;;;;;;;3.07;2.23;;;23.80;40.90;;;;;;8328279;28;20038;-45
2021/06/05 16:15:36;;;;;;;3.00;1.90;;;23.80;40.90;;;;;;8330011;28;20275;-46
2021/06/05 16:19:37;;;;;;;2.65;2.00;;;23.80;40.90;;;;;;8304676;28;20442;-45
2021/06/05 16:23:38;;;;;;;2.90;1.90;;;23.80;40.90;;;;;;8307507;28;20034;-45
2021/06/05 16:27:38;;;;;;;3.00;2.10;;;23.80;40.90;;;;;;8327207;28;20503;-45
2021/06/05 16:31:40;;;;;;;2.10;1.80;;;23.80;40.90;;;;;;8332321;28;20038;-49
2021/06/05 16:35:44;;;;;;;3.47;1.63;;;23.90;40.90;;;;;;8298441;28;20412;-46
2021/06/05 16:39:44;;;;;;;2.28;1.70;;;23.80;40.90;;;;;;8295113;28;20030;-47
2021/06/05 16:43:47;;;;;;;2.80;2.17;;;23.80;40.90;;;;;;8302651;28;20663;-45
2021/06/05 16:47:50;;;;;;;2.15;1.77;;;23.80;40.90;;;;;;8329922;28;20102;-46
2021/06/05 16:51:51;;;;;;;2.17;1.70;;;23.80;40.90;;;;;;8295337;28;20049;-46
2021/06/05 16:55:52;;;;;;;3.70;2.00;;;23.80;40.90;;;;;;8313437;28;20034;-47
2021/06/05 16:59:53;;;;;;;2.63;1.80;;;23.80;40.90;;;;;;8314933;28;20030;-46
2021/06/05 17:03:54;;;;;;;3.47;2.10;;;23.80;40.90;;;;;;8294740;28;20040;-46
2021/06/05 17:07:55;;;;;;;2.13;1.58;;;23.80;40.90;;;;;;8296356;28;20078;-46
2021/06/05 17:11:55;;;;;;;2.92;2.08;;;23.80;40.90;;;;;;8319249;28;20033;-47
2021/06/05 17:15:57;;;;;;;3.25;1.85;;;23.80;40.90;;;;;;8309589;28;20529;-45
2021/06/05 17:19:57;;;;;;;1.98;1.60;;;23.80;40.90;;;;;;8297657;28;20034;-46
2021/06/05 17:23:58;;;;;;;3.53;2.03;;;23.80;40.90;;;;;;8330553;28;20053;-45
2021/06/05 17:27:59;;;;;;;2.40;1.80;;;23.80;40.90;;;;;;8325479;28;20038;-46
2021/06/05 17:31:59;;;;;;;2.40;1.48;;;23.80;40.90;;;;;;8324271;28;20283;-46
2021/06/05 17:36:01;;;;;;;1.83;1.70;;;23.80;40.90;;;;;;8325266;28;20042;-46
2021/06/05 17:40:03;;;;;;;2.97;1.70;;;23.70;40.90;;;;;;8326337;28;20049;-46
2021/06/05 17:44:04;;;;;;;2.40;1.70;;;23.80;40.90;;;;;;8327906;28;20572;-46
2021/06/05 17:48:05;;;;;;;2.80;2.17;;;23.80;40.90;;;;;;8324324;28;20149;-47
2021/06/05 17:52:07;;;;;;;3.08;1.88;;;23.80;41.00;;;;;;8310971;28;20096;-48
2021/06/05 17:56:08;;;;;;;;;;;23.80;40.90;;;;;;8292083;28;20073;-47
2021/06/05 18:00:12;;;;;;;2.20;1.95;;;23.80;41.00;;;;;;8296907;28;19916;-46
2021/06/05 18:04:17;;;;;;;3.20;2.10;;;23.70;40.90;;;;;;8319290;28;20034;-47
2021/06/05 18:08:19;;;;;;;2.05;1.60;;;23.70;40.90;;;;;;8322109;28;20480;-46
2021/06/05 18:12:19;;;;;;;2.88;1.90;;;23.70;41.00;;;;;;8315540;28;20390;-45
2021/06/05 18:16:24;;;;;;;2.90;2.03;;;23.70;40.90;;;;;;8296448;28;20038;-47
2021/06/05 18:20:31;;;;;;;3.28;1.77;;;23.70;41.00;;;;;;8325686;28;20268;-48
2021/06/05 18:24:37;;;;;;;2.63;1.80;;;23.70;40.90;;;;;;8301120;28;20042;-47
2021/06/05 18:28:38;;;;;;;1.92;1.50;;;23.70;40.90;;;;;;8292010;28;20034;-46
2021/06/05 18:32:39;;;;;;;3.95;1.80;;;23.70;41.00;;;;;;8295655;28;20038;-45
2021/06/05 18:36:39;;;;;;;3.38;1.92;;;23.70;40.90;;;;;;8328756;28;20076;-46
2021/06/05 18:40:42;;;;;;;2.50;1.60;;;23.70;40.90;;;;;;8324268;28;20517;-45
2021/06/05 18:44:44;;;;;;;2.55;1.80;;;23.70;41.00;;;;;;8322396;28;20049;-46
2021/06/05 18:48:46;;;;;;;2.03;1.80;;;23.70;41.00;;;;;;8323641;28;20458;-49
2021/06/05 18:52:47;;;;;;;2.25;1.77;;;23.70;41.00;;;;;;8324585;28;20529;-46
2021/06/05 18:56:49;;;;;;;2.20;1.58;;;23.70;41.10;;;;;;8326790;28;20083;-48
2021/06/05 19:00:50;;;;;;;2.33;1.63;;;23.70;41.00;;;;;;8323145;28;20044;-45
2021/06/05 19:04:51;;;;;;;1.77;1.60;;;23.70;41.00;;;;;;8322166;28;20495;-46
2021/06/05 19:08:51;;;;;;;2.17;1.43;;;23.60;40.90;;;;;;8320601;28;20050;-46
2021/06/05 19:12:53;;;;;;;3.17;1.73;;;23.60;41.00;;;;;;8295679;28;20487;-45
2021/06/05 19:16:54;;;;;;;2.70;1.70;;;23.60;41.00;;;;;;8291687;28;20037;-47
2021/06/05 19:20:55;;;;;;;;;;;23.60;41.00;;;;;;8315332;28;20037;-45
2021/06/05 19:24:56;;;;;;;2.20;1.47;;;23.60;41.00;;;;;;8322599;28;19918;-45
2021/06/05 19:28:57;;;;;;;2.20;1.53;;;23.60;41.00;;;;;;8299457;28;20034;-47
2021/06/05 19:33:02;;;;;;;1.83;1.50;;;23.60;41.00;;;;;;8297450;28;20041;-45
2021/06/05 19:37:04;;;;;;;2.17;1.33;;;23.60;41.00;;;;;;8297157;28;20069;-46
2021/06/05 19:41:12;;;;;;;2.55;1.55;;;23.60;41.00;;;;;;8295349;28;20556;-47
2021/06/05 19:45:13;;;;;;;1.92;1.48;;;23.60;41.00;;;;;;8299695;28;20087;-47
2021/06/05 19:49:15;;;;;;;1.92;1.48;;;23.60;41.00;;;;;;8333117;28;20033;-47
2021/06/05 19:53:18;;;;;;;2.67;1.60;;;23.60;41.00;;;;;;8301079;28;20034;-47
2021/06/05 19:57:20;;;;;;;2.55;1.42;;;23.60;41.10;;;;;;8296502;28;20061;-47
2021/06/05 20:01:25;;;;;;;2.10;1.40;;;23.60;41.10;;;;;;8302993;28;20465;-47
2021/06/05 20:05:27;;;;;;;1.60;1.25;;;23.50;41.10;;;;;;8330703;28;20069;-47
2021/06/05 20:09:28;;;;;;;1.73;1.20;;;23.60;41.10;;;;;;8327962;28;20509;-47
2021/06/05 20:13:28;;;;;;;2.00;1.57;;;23.50;41.00;;;;;;8306341;28;20049;-49
2021/06/05 20:17:29;;;;;;;1.50;1.40;;;23.50;41.00;;;;;;8304836;28;20355;-47
2021/06/05 20:21:34;;;;;;;2.53;1.70;;;23.50;41.00;;;;;;8325700;28;20037;-46
2021/06/05 20:25:35;;;;;;;2.50;1.83;;;23.50;41.10;;;;;;8299193;28;20833;-47
2021/06/05 20:29:36;;;;;;;1.88;1.33;;;23.50;41.10;;;;;;8292690;28;20030;-50
2021/06/05 20:33:37;;;;;;;1.83;1.27;;;23.50;41.10;;;;;;8295729;28;20491;-47
2021/06/05 20:37:38;;;;;;;1.48;1.30;;;23.50;41.10;;;;;;8300646;28;20029;-49
2021/06/05 20:41:41;;;;;;;2.00;1.30;;;23.50;41.10;;;;;;8329705;28;20041;-47
2021/06/05 20:45:43;;;;;;;1.88;1.35;;;23.50;41.10;;;;;;8326637;28;20410;-50
2021/06/05 20:49:43;;;;;;;1.83;1.42;;;23.50;41.10;;;;;;8306000;28;20062;-50
2021/06/05 20:53:44;;;;;;;1.70;1.40;;;23.50;41.70;;;;;;8303511;28;20122;-49
2021/06/05 20:57:46;;;;;;;1.50;1.30;;;23.50;41.20;;;;;;8326357;28;20029;-50
2021/06/05 21:01:47;;;;;;;1.90;1.40;;;23.50;41.20;;;;;;8329308;28;20496;-48
2021/06/05 21:05:47;;;;;;;;;;;23.40;41.10;;;;;;8326406;28;20052;-47
2021/06/05 21:09:48;;;;;;;3.63;1.50;;;23.50;41.20;;;;;;8326023;28;20254;-47